sensor_id;sensor_type;location;lat;lon;timestamp;temperature;humidity
19031;DHT22;9648;51.130;13.978;2023-02-18T00:01:17;8.40;99.90
19031;DHT22;9648;51.130;13.978;2023-02-18T00:03:45;8.40;99.90
19031;DHT22;9648;51.130;13.978;2023-02-18T00:06:13;8.40;99.90
19031;DHT22;9648;51.130;13.978;2023-02-18T00:08:43;8.40;99.90
19031;DHT22;9648;51.130;13.978;2023-02-18T00:11:10;8.40;99.90
19031;DHT22;9648;51.130;13.978;2023-02-18T00:13:37;8.40;99.90
19031;DHT22;9648;51.130;13.978;2023-02-18T00:16:06;8.30;99.90
19031;DHT22;9648;51.130;13.978;2023-02-18T00:18:33;8.20;99.90
19031;DHT22;9648;51.130;13.978;2023-02-18T00:21:02;8.20;99.90
19031;DHT22;9648;51.130;13.978;2023-02-18T00:23:29;8.20;99.90
19031;DHT22;9648;51.130;13.978;2023-02-18T00:26:02;8.10;99.90
19031;DHT22;9648;51.130;13.978;2023-02-18T00:28:31;8.00;99.90
19031;DHT22;9648;51.130;13.978;2023-02-18T00:30:58;8.00;99.90
19031;DHT22;9648;51.130;13.978;2023-02-18T00:33:25;8.00;99.90
19031;DHT22;9648;51.130;13.978;2023-02-18T00:35:52;8.00;99.90
19031;DHT22;9648;51.130;13.978;2023-02-18T00:38:19;7.90;99.90
19031;DHT22;9648;51.130;13.978;2023-02-18T00:40:46;7.90;99.90
19031;DHT22;9648;51.130;13.978;2023-02-18T00:43:14;7.90;99.90
19031;DHT22;9648;51.130;13.978;2023-02-18T00:45:41;7.90;99.90
19031;DHT22;9648;51.130;13.978;2023-02-18T00:48:08;8.00;99.90
19031;DHT22;9648;51.130;13.978;2023-02-18T00:50:35;8.00;99.90
19031;DHT22;9648;51.130;13.978;2023-02-18T00:53:02;8.00;99.90
19031;DHT22;9648;51.130;13.978;2023-02-18T00:55:29;8.00;99.90
19031;DHT22;9648;51.130;13.978;2023-02-18T00:57:56;7.90;99.90
19031;DHT22;9648;51.130;13.978;2023-02-18T01:00:24;7.90;99.90
19031;DHT22;9648;51.130;13.978;2023-02-18T01:02:51;7.90;99.90
19031;DHT22;9648;51.130;13.978;2023-02-18T01:05:19;7.90;99.90
19031;DHT22;9648;51.130;13.978;2023-02-18T01:07:46;7.80;99.90
19031;DHT22;9648;51.130;13.978;2023-02-18T01:10:13;7.80;99.90
19031;DHT22;9648;51.130;13.978;2023-02-18T01:12:39;7.70;99.90
19031;DHT22;9648;51.130;13.978;2023-02-18T01:15:07;7.70;99.90
19031;DHT22;9648;51.130;13.978;2023-02-18T01:17:36;7.70;99.90
19031;DHT22;9648;51.130;13.978;2023-02-18T01:20:03;7.60;99.90
19031;DHT22;9648;51.130;13.978;2023-02-18T01:22:30;7.50;99.90
19031;DHT22;9648;51.130;13.978;2023-02-18T01:24:57;7.60;99.90
19031;DHT22;9648;51.130;13.978;2023-02-18T01:27:42;7.50;99.90
19031;DHT22;9648;51.130;13.978;2023-02-18T01:30:13;7.50;99.90
19031;DHT22;9648;51.130;13.978;2023-02-18T01:32:42;7.50;99.90
19031;DHT22;9648;51.130;13.978;2023-02-18T01:35:27;7.50;99.90
19031;DHT22;9648;51.130;13.978;2023-02-18T01:37:54;7.40;99.90
19031;DHT22;9648;51.130;13.978;2023-02-18T01:40:23;7.40;99.90
19031;DHT22;9648;51.130;13.978;2023-02-18T01:42:50;7.30;99.90
19031;DHT22;9648;51.130;13.978;2023-02-18T01:45:49;7.30;99.90
19031;DHT22;9648;51.130;13.978;2023-02-18T01:48:24;7.30;99.90
19031;DHT22;9648;51.130;13.978;2023-02-18T01:50:55;7.30;99.90
19031;DHT22;9648;51.130;13.978;2023-02-18T01:53:25;7.20;99.90
19031;DHT22;9648;51.130;13.978;2023-02-18T01:55:54;7.20;99.90
19031;DHT22;9648;51.130;13.978;2023-02-18T01:58:21;7.20;99.90
19031;DHT22;9648;51.130;13.978;2023-02-18T02:00:48;7.20;99.90
19031;DHT22;9648;51.130;13.978;2023-02-18T02:03:15;7.20;99.90
19031;DHT22;9648;51.130;13.978;2023-02-18T02:05:43;7.20;99.90
19031;DHT22;9648;51.130;13.978;2023-02-18T02:08:10;7.20;99.90
19031;DHT22;9648;51.130;13.978;2023-02-18T02:10:45;7.20;99.90
19031;DHT22;9648;51.130;13.978;2023-02-18T02:13:22;7.30;99.90
19031;DHT22;9648;51.130;13.978;2023-02-18T02:15:56;7.30;99.90
19031;DHT22;9648;51.130;13.978;2023-02-18T02:18:38;7.30;99.90
19031;DHT22;9648;51.130;13.978;2023-02-18T02:21:29;7.30;99.90
19031;DHT22;9648;51.130;13.978;2023-02-18T02:27:18;7.20;99.90
19031;DHT22;9648;51.130;13.978;2023-02-18T02:30:02;7.20;99.90
19031;DHT22;9648;51.130;13.978;2023-02-18T02:33:03;7.10;99.90
19031;DHT22;9648;51.130;13.978;2023-02-18T02:35:36;7.10;99.90
19031;DHT22;9648;51.130;13.978;2023-02-18T02:38:06;7.00;99.90
19031;DHT22;9648;51.130;13.978;2023-02-18T02:40:39;7.00;99.90
19031;DHT22;9648;51.130;13.978;2023-02-18T02:43:18;7.00;99.90
19031;DHT22;9648;51.130;13.978;2023-02-18T02:45:51;6.90;99.90
19031;DHT22;9648;51.130;13.978;2023-02-18T02:48:27;6.90;99.90
19031;DHT22;9648;51.130;13.978;2023-02-18T02:51:03;6.80;99.90
19031;DHT22;9648;51.130;13.978;2023-02-18T02:53:33;6.80;99.90
19031;DHT22;9648;51.130;13.978;2023-02-18T02:56:00;6.80;99.90
19031;DHT22;9648;51.130;13.978;2023-02-18T02:58:27;6.80;99.90
19031;DHT22;9648;51.130;13.978;2023-02-18T03:01:10;6.80;99.90
19031;DHT22;9648;51.130;13.978;2023-02-18T03:04:03;6.90;99.90
19031;DHT22;9648;51.130;13.978;2023-02-18T03:06:44;6.90;99.90
19031;DHT22;9648;51.130;13.978;2023-02-18T03:09:18;7.00;99.90
19031;DHT22;9648;51.130;13.978;2023-02-18T03:11:54;7.00;99.90
19031;DHT22;9648;51.130;13.978;2023-02-18T03:14:27;7.00;99.90
19031;DHT22;9648;51.130;13.978;2023-02-18T03:17:00;7.00;99.90
19031;DHT22;9648;51.130;13.978;2023-02-18T03:19:32;7.00;99.90
19031;DHT22;9648;51.130;13.978;2023-02-18T03:22:05;7.00;99.90
19031;DHT22;9648;51.130;13.978;2023-02-18T03:24:37;6.90;99.90
19031;DHT22;9648;51.130;13.978;2023-02-18T03:27:07;7.00;99.90
19031;DHT22;9648;51.130;13.978;2023-02-18T03:29:36;7.00;99.90
19031;DHT22;9648;51.130;13.978;2023-02-18T03:32:06;7.00;99.90
19031;DHT22;9648;51.130;13.978;2023-02-18T03:34:39;7.10;99.90
19031;DHT22;9648;51.130;13.978;2023-02-18T03:37:09;7.10;99.90
19031;DHT22;9648;51.130;13.978;2023-02-18T03:39:39;7.10;99.90
19031;DHT22;9648;51.130;13.978;2023-02-18T03:42:07;7.20;99.90
19031;DHT22;9648;51.130;13.978;2023-02-18T03:44:34;7.20;99.90
19031;DHT22;9648;51.130;13.978;2023-02-18T03:47:01;7.30;99.90
19031;DHT22;9648;51.130;13.978;2023-02-18T03:49:28;7.30;99.90
19031;DHT22;9648;51.130;13.978;2023-02-18T03:51:54;7.30;99.90
19031;DHT22;9648;51.130;13.978;2023-02-18T03:54:22;7.30;99.90
19031;DHT22;9648;51.130;13.978;2023-02-18T03:56:49;7.30;99.90
19031;DHT22;9648;51.130;13.978;2023-02-18T03:59:16;7.30;99.90
19031;DHT22;9648;51.130;13.978;2023-02-18T04:01:43;7.30;99.90
19031;DHT22;9648;51.130;13.978;2023-02-18T04:04:10;7.40;99.90
19031;DHT22;9648;51.130;13.978;2023-02-18T04:06:37;7.40;99.90
19031;DHT22;9648;51.130;13.978;2023-02-18T04:09:03;7.40;99.90
19031;DHT22;9648;51.130;13.978;2023-02-18T04:11:35;7.40;99.90
19031;DHT22;9648;51.130;13.978;2023-02-18T04:14:02;7.40;99.90
19031;DHT22;9648;51.130;13.978;2023-02-18T04:16:29;7.40;99.90
19031;DHT22;9648;51.130;13.978;2023-02-18T04:18:56;7.40;99.90
19031;DHT22;9648;51.130;13.978;2023-02-18T04:21:23;7.40;99.90
19031;DHT22;9648;51.130;13.978;2023-02-18T04:23:49;7.40;99.90
19031;DHT22;9648;51.130;13.978;2023-02-18T04:26:16;7.40;99.90
19031;DHT22;9648;51.130;13.978;2023-02-18T04:28:44;7.30;99.90
19031;DHT22;9648;51.130;13.978;2023-02-18T04:31:11;7.40;99.90
19031;DHT22;9648;51.130;13.978;2023-02-18T04:33:38;7.40;99.90
19031;DHT22;9648;51.130;13.978;2023-02-18T04:36:05;7.40;99.90
19031;DHT22;9648;51.130;13.978;2023-02-18T04:38:32;7.40;99.90
19031;DHT22;9648;51.130;13.978;2023-02-18T04:40:59;7.40;99.90
19031;DHT22;9648;51.130;13.978;2023-02-18T04:43:26;7.40;99.90
19031;DHT22;9648;51.130;13.978;2023-02-18T04:45:54;7.50;99.90
19031;DHT22;9648;51.130;13.978;2023-02-18T04:48:21;7.40;99.90
19031;DHT22;9648;51.130;13.978;2023-02-18T04:50:47;7.40;99.90
19031;DHT22;9648;51.130;13.978;2023-02-18T04:53:14;7.40;99.90
19031;DHT22;9648;51.130;13.978;2023-02-18T04:55:41;7.40;99.90
19031;DHT22;9648;51.130;13.978;2023-02-18T04:58:07;7.30;99.90
19031;DHT22;9648;51.130;13.978;2023-02-18T05:00:35;7.30;99.90
19031;DHT22;9648;51.130;13.978;2023-02-18T05:03:03;7.40;99.90
19031;DHT22;9648;51.130;13.978;2023-02-18T05:05:33;7.40;99.90
19031;DHT22;9648;51.130;13.978;2023-02-18T05:08:00;7.40;99.90
19031;DHT22;9648;51.130;13.978;2023-02-18T05:10:27;7.40;99.90
19031;DHT22;9648;51.130;13.978;2023-02-18T05:12:54;7.50;99.90
19031;DHT22;9648;51.130;13.978;2023-02-18T05:15:20;7.50;99.90
19031;DHT22;9648;51.130;13.978;2023-02-18T05:17:47;7.50;99.90
19031;DHT22;9648;51.130;13.978;2023-02-18T05:20:16;7.50;99.90
19031;DHT22;9648;51.130;13.978;2023-02-18T05:22:42;7.40;99.90
19031;DHT22;9648;51.130;13.978;2023-02-18T05:25:09;7.50;99.90
19031;DHT22;9648;51.130;13.978;2023-02-18T05:27:36;7.40;99.90
19031;DHT22;9648;51.130;13.978;2023-02-18T05:30:04;7.40;99.90
19031;DHT22;9648;51.130;13.978;2023-02-18T05:32:31;7.40;99.90
19031;DHT22;9648;51.130;13.978;2023-02-18T05:34:57;7.40;99.90
19031;DHT22;9648;51.130;13.978;2023-02-18T05:37:26;7.40;99.90
19031;DHT22;9648;51.130;13.978;2023-02-18T05:39:52;7.40;99.90
19031;DHT22;9648;51.130;13.978;2023-02-18T05:42:19;7.40;99.90
19031;DHT22;9648;51.130;13.978;2023-02-18T05:44:46;7.40;99.90
19031;DHT22;9648;51.130;13.978;2023-02-18T05:47:13;7.40;99.90
19031;DHT22;9648;51.130;13.978;2023-02-18T05:49:40;7.40;99.90
19031;DHT22;9648;51.130;13.978;2023-02-18T05:52:11;7.40;99.90
19031;DHT22;9648;51.130;13.978;2023-02-18T05:54:39;7.40;99.90
19031;DHT22;9648;51.130;13.978;2023-02-18T05:57:06;7.40;99.90
19031;DHT22;9648;51.130;13.978;2023-02-18T05:59:33;7.40;99.90
19031;DHT22;9648;51.130;13.978;2023-02-18T06:02:00;7.50;99.90
19031;DHT22;9648;51.130;13.978;2023-02-18T06:04:26;7.50;99.90
19031;DHT22;9648;51.130;13.978;2023-02-18T06:06:53;7.50;99.90
19031;DHT22;9648;51.130;13.978;2023-02-18T06:09:20;7.50;99.90
19031;DHT22;9648;51.130;13.978;2023-02-18T06:11:49;7.60;99.90
19031;DHT22;9648;51.130;13.978;2023-02-18T06:14:16;7.50;99.90
19031;DHT22;9648;51.130;13.978;2023-02-18T06:16:42;7.50;99.90
19031;DHT22;9648;51.130;13.978;2023-02-18T06:19:09;7.50;99.90
19031;DHT22;9648;51.130;13.978;2023-02-18T06:21:36;7.50;99.90
19031;DHT22;9648;51.130;13.978;2023-02-18T06:24:03;7.50;99.90
19031;DHT22;9648;51.130;13.978;2023-02-18T06:26:30;7.40;99.90
19031;DHT22;9648;51.130;13.978;2023-02-18T06:28:59;7.40;99.90
19031;DHT22;9648;51.130;13.978;2023-02-18T06:31:25;7.40;99.90
19031;DHT22;9648;51.130;13.978;2023-02-18T06:33:52;7.30;99.90
19031;DHT22;9648;51.130;13.978;2023-02-18T06:36:19;7.30;99.90
19031;DHT22;9648;51.130;13.978;2023-02-18T06:38:46;7.20;99.90
19031;DHT22;9648;51.130;13.978;2023-02-18T06:41:13;7.20;99.90
19031;DHT22;9648;51.130;13.978;2023-02-18T06:43:40;7.20;99.90
19031;DHT22;9648;51.130;13.978;2023-02-18T06:46:08;7.10;99.90
19031;DHT22;9648;51.130;13.978;2023-02-18T06:48:35;7.10;99.90
19031;DHT22;9648;51.130;13.978;2023-02-18T06:51:03;7.00;99.90
19031;DHT22;9648;51.130;13.978;2023-02-18T06:53:29;7.00;99.90
19031;DHT22;9648;51.130;13.978;2023-02-18T06:55:57;7.00;99.90
19031;DHT22;9648;51.130;13.978;2023-02-18T06:58:23;7.00;99.90
19031;DHT22;9648;51.130;13.978;2023-02-18T07:00:50;6.90;99.90
19031;DHT22;9648;51.130;13.978;2023-02-18T07:03:18;7.00;99.90
19031;DHT22;9648;51.130;13.978;2023-02-18T07:05:45;7.00;99.90
19031;DHT22;9648;51.130;13.978;2023-02-18T07:08:12;7.00;99.90
19031;DHT22;9648;51.130;13.978;2023-02-18T07:10:39;7.00;99.90
19031;DHT22;9648;51.130;13.978;2023-02-18T07:13:06;7.00;99.90
19031;DHT22;9648;51.130;13.978;2023-02-18T07:15:32;7.10;99.90
19031;DHT22;9648;51.130;13.978;2023-02-18T07:17:59;7.10;99.90
19031;DHT22;9648;51.130;13.978;2023-02-18T07:20:27;7.10;99.90
19031;DHT22;9648;51.130;13.978;2023-02-18T07:22:54;7.00;99.90
19031;DHT22;9648;51.130;13.978;2023-02-18T07:25:21;7.00;99.90
19031;DHT22;9648;51.130;13.978;2023-02-18T07:27:48;7.00;99.90
19031;DHT22;9648;51.130;13.978;2023-02-18T07:30:15;7.00;99.90
19031;DHT22;9648;51.130;13.978;2023-02-18T07:32:42;7.00;99.90
19031;DHT22;9648;51.130;13.978;2023-02-18T07:35:10;7.00;99.90
19031;DHT22;9648;51.130;13.978;2023-02-18T07:37:42;7.00;99.90
19031;DHT22;9648;51.130;13.978;2023-02-18T07:40:10;7.00;99.90
19031;DHT22;9648;51.130;13.978;2023-02-18T07:42:38;7.00;99.90
19031;DHT22;9648;51.130;13.978;2023-02-18T07:45:05;7.00;99.90
19031;DHT22;9648;51.130;13.978;2023-02-18T07:47:32;7.10;99.90
19031;DHT22;9648;51.130;13.978;2023-02-18T07:49:59;7.10;99.90
19031;DHT22;9648;51.130;13.978;2023-02-18T07:52:25;7.20;99.90
19031;DHT22;9648;51.130;13.978;2023-02-18T07:54:53;7.20;99.90
19031;DHT22;9648;51.130;13.978;2023-02-18T07:57:20;7.20;99.90
19031;DHT22;9648;51.130;13.978;2023-02-18T07:59:47;7.20;99.90
19031;DHT22;9648;51.130;13.978;2023-02-18T08:02:17;7.30;99.90
19031;DHT22;9648;51.130;13.978;2023-02-18T08:04:44;7.30;99.90
19031;DHT22;9648;51.130;13.978;2023-02-18T08:07:12;7.30;99.90
19031;DHT22;9648;51.130;13.978;2023-02-18T08:09:39;7.30;99.90
19031;DHT22;9648;51.130;13.978;2023-02-18T08:12:08;7.40;99.90
19031;DHT22;9648;51.130;13.978;2023-02-18T08:14:38;7.30;99.90
19031;DHT22;9648;51.130;13.978;2023-02-18T08:17:06;7.30;99.90
19031;DHT22;9648;51.130;13.978;2023-02-18T08:19:32;7.40;99.90
19031;DHT22;9648;51.130;13.978;2023-02-18T08:22:00;7.40;99.90
19031;DHT22;9648;51.130;13.978;2023-02-18T08:24:27;7.40;99.90
19031;DHT22;9648;51.130;13.978;2023-02-18T08:26:54;7.30;99.90
19031;DHT22;9648;51.130;13.978;2023-02-18T08:29:22;7.30;99.90
19031;DHT22;9648;51.130;13.978;2023-02-18T08:31:49;7.40;99.90
19031;DHT22;9648;51.130;13.978;2023-02-18T08:34:16;7.40;99.90
19031;DHT22;9648;51.130;13.978;2023-02-18T08:36:43;7.40;99.90
19031;DHT22;9648;51.130;13.978;2023-02-18T08:39:10;7.40;99.90
19031;DHT22;9648;51.130;13.978;2023-02-18T08:41:37;7.40;99.90
19031;DHT22;9648;51.130;13.978;2023-02-18T08:44:04;7.50;99.90
19031;DHT22;9648;51.130;13.978;2023-02-18T08:46:32;7.40;99.90
19031;DHT22;9648;51.130;13.978;2023-02-18T08:48:59;7.50;99.90
19031;DHT22;9648;51.130;13.978;2023-02-18T08:51:27;7.50;99.90
19031;DHT22;9648;51.130;13.978;2023-02-18T08:53:54;7.50;99.90
19031;DHT22;9648;51.130;13.978;2023-02-18T08:56:21;7.40;99.90
19031;DHT22;9648;51.130;13.978;2023-02-18T08:58:48;7.50;99.90
19031;DHT22;9648;51.130;13.978;2023-02-18T09:01:14;7.50;99.90
19031;DHT22;9648;51.130;13.978;2023-02-18T09:03:42;7.60;99.90
19031;DHT22;9648;51.130;13.978;2023-02-18T09:06:09;7.60;99.90
19031;DHT22;9648;51.130;13.978;2023-02-18T09:08:36;7.60;99.90
19031;DHT22;9648;51.130;13.978;2023-02-18T09:11:04;7.70;99.90
19031;DHT22;9648;51.130;13.978;2023-02-18T09:13:31;7.70;99.90
19031;DHT22;9648;51.130;13.978;2023-02-18T09:15:59;7.90;99.90
19031;DHT22;9648;51.130;13.978;2023-02-18T09:18:26;7.80;99.90
19031;DHT22;9648;51.130;13.978;2023-02-18T09:20:57;7.90;99.90
19031;DHT22;9648;51.130;13.978;2023-02-18T09:23:25;7.90;99.90
19031;DHT22;9648;51.130;13.978;2023-02-18T09:25:52;7.90;99.90
19031;DHT22;9648;51.130;13.978;2023-02-18T09:28:18;7.90;99.90
19031;DHT22;9648;51.130;13.978;2023-02-18T09:30:45;7.90;99.90
19031;DHT22;9648;51.130;13.978;2023-02-18T09:33:12;7.90;99.90
19031;DHT22;9648;51.130;13.978;2023-02-18T09:35:39;8.00;99.90
19031;DHT22;9648;51.130;13.978;2023-02-18T09:38:08;8.00;99.90
19031;DHT22;9648;51.130;13.978;2023-02-18T09:40:38;8.10;99.90
19031;DHT22;9648;51.130;13.978;2023-02-18T09:43:05;8.20;99.90
19031;DHT22;9648;51.130;13.978;2023-02-18T09:45:32;8.20;99.90
19031;DHT22;9648;51.130;13.978;2023-02-18T09:48:00;8.20;99.90
19031;DHT22;9648;51.130;13.978;2023-02-18T09:50:29;8.20;99.90
19031;DHT22;9648;51.130;13.978;2023-02-18T09:52:57;8.30;99.90
19031;DHT22;9648;51.130;13.978;2023-02-18T09:55:28;8.30;99.90
19031;DHT22;9648;51.130;13.978;2023-02-18T09:58:01;8.30;99.90
19031;DHT22;9648;51.130;13.978;2023-02-18T10:00:32;8.40;99.90
19031;DHT22;9648;51.130;13.978;2023-02-18T10:03:03;8.30;99.90
19031;DHT22;9648;51.130;13.978;2023-02-18T10:05:32;8.30;99.90
19031;DHT22;9648;51.130;13.978;2023-02-18T10:08:02;8.30;99.90
19031;DHT22;9648;51.130;13.978;2023-02-18T10:10:39;8.30;99.90
19031;DHT22;9648;51.130;13.978;2023-02-18T10:13:12;8.40;99.90
19031;DHT22;9648;51.130;13.978;2023-02-18T10:15:40;8.40;99.90
19031;DHT22;9648;51.130;13.978;2023-02-18T10:18:17;8.50;99.90
19031;DHT22;9648;51.130;13.978;2023-02-18T10:20:45;8.60;99.90
19031;DHT22;9648;51.130;13.978;2023-02-18T10:23:14;8.70;99.90
19031;DHT22;9648;51.130;13.978;2023-02-18T10:25:44;8.70;99.90
19031;DHT22;9648;51.130;13.978;2023-02-18T10:28:17;8.90;99.90
19031;DHT22;9648;51.130;13.978;2023-02-18T10:30:48;9.00;99.90
19031;DHT22;9648;51.130;13.978;2023-02-18T10:33:26;9.10;99.90
19031;DHT22;9648;51.130;13.978;2023-02-18T10:36:05;9.10;99.90
19031;DHT22;9648;51.130;13.978;2023-02-18T10:38:38;9.20;99.90
19031;DHT22;9648;51.130;13.978;2023-02-18T10:41:17;9.30;99.90
19031;DHT22;9648;51.130;13.978;2023-02-18T10:43:51;9.30;99.90
19031;DHT22;9648;51.130;13.978;2023-02-18T10:46:25;9.40;99.90
19031;DHT22;9648;51.130;13.978;2023-02-18T10:49:02;9.50;99.90
19031;DHT22;9648;51.130;13.978;2023-02-18T10:51:33;9.60;99.90
19031;DHT22;9648;51.130;13.978;2023-02-18T10:54:00;9.60;99.90
19031;DHT22;9648;51.130;13.978;2023-02-18T10:56:38;9.70;99.90
19031;DHT22;9648;51.130;13.978;2023-02-18T10:59:13;9.70;99.90
19031;DHT22;9648;51.130;13.978;2023-02-18T11:01:45;9.70;99.90
19031;DHT22;9648;51.130;13.978;2023-02-18T11:04:20;9.70;99.90
19031;DHT22;9648;51.130;13.978;2023-02-18T11:06:50;9.70;99.90
19031;DHT22;9648;51.130;13.978;2023-02-18T11:09:27;9.80;99.90
19031;DHT22;9648;51.130;13.978;2023-02-18T11:12:01;9.80;99.90
19031;DHT22;9648;51.130;13.978;2023-02-18T11:14:37;9.90;99.90
19031;DHT22;9648;51.130;13.978;2023-02-18T11:17:18;9.80;99.90
19031;DHT22;9648;51.130;13.978;2023-02-18T11:19:52;9.80;99.90
19031;DHT22;9648;51.130;13.978;2023-02-18T11:22:21;9.80;99.90
19031;DHT22;9648;51.130;13.978;2023-02-18T11:24:53;9.80;99.90
19031;DHT22;9648;51.130;13.978;2023-02-18T11:27:25;9.90;99.90
19031;DHT22;9648;51.130;13.978;2023-02-18T11:29:58;9.90;99.90
19031;DHT22;9648;51.130;13.978;2023-02-18T11:32:26;9.90;99.90
19031;DHT22;9648;51.130;13.978;2023-02-18T11:34:53;10.00;99.90
19031;DHT22;9648;51.130;13.978;2023-02-18T11:37:21;10.00;99.90
19031;DHT22;9648;51.130;13.978;2023-02-18T11:39:50;9.90;99.90
19031;DHT22;9648;51.130;13.978;2023-02-18T11:42:19;10.00;99.90
19031;DHT22;9648;51.130;13.978;2023-02-18T11:44:52;10.10;99.90
19031;DHT22;9648;51.130;13.978;2023-02-18T11:47:23;10.10;99.90
19031;DHT22;9648;51.130;13.978;2023-02-18T11:50:09;10.20;99.90
19031;DHT22;9648;51.130;13.978;2023-02-18T11:52:41;10.10;99.90
19031;DHT22;9648;51.130;13.978;2023-02-18T11:55:14;10.10;99.90
19031;DHT22;9648;51.130;13.978;2023-02-18T11:57:44;10.10;99.90
19031;DHT22;9648;51.130;13.978;2023-02-18T12:00:21;10.20;99.90
19031;DHT22;9648;51.130;13.978;2023-02-18T12:02:49;10.20;99.90
19031;DHT22;9648;51.130;13.978;2023-02-18T12:05:20;10.20;99.90
19031;DHT22;9648;51.130;13.978;2023-02-18T12:07:49;10.20;99.90
19031;DHT22;9648;51.130;13.978;2023-02-18T12:10:22;10.20;99.90
19031;DHT22;9648;51.130;13.978;2023-02-18T12:12:53;10.30;99.90
19031;DHT22;9648;51.130;13.978;2023-02-18T12:15:27;10.30;99.90
19031;DHT22;9648;51.130;13.978;2023-02-18T12:21:10;10.30;99.90
19031;DHT22;9648;51.130;13.978;2023-02-18T12:23:49;10.30;99.90
19031;DHT22;9648;51.130;13.978;2023-02-18T12:26:25;10.20;99.90
19031;DHT22;9648;51.130;13.978;2023-02-18T12:29:09;10.20;99.90
19031;DHT22;9648;51.130;13.978;2023-02-18T12:32:07;10.20;99.90
19031;DHT22;9648;51.130;13.978;2023-02-18T12:34:45;10.20;99.90
19031;DHT22;9648;51.130;13.978;2023-02-18T12:37:49;10.20;99.90
19031;DHT22;9648;51.130;13.978;2023-02-18T12:40:44;10.10;99.90
19031;DHT22;9648;51.130;13.978;2023-02-18T12:43:21;10.10;99.90
19031;DHT22;9648;51.130;13.978;2023-02-18T12:48:59;10.10;99.90
19031;DHT22;9648;51.130;13.978;2023-02-18T12:51:42;10.10;99.90
19031;DHT22;9648;51.130;13.978;2023-02-18T12:54:27;10.00;99.90
19031;DHT22;9648;51.130;13.978;2023-02-18T12:57:08;10.00;99.90
19031;DHT22;9648;51.130;13.978;2023-02-18T13:02:46;10.00;99.90
19031;DHT22;9648;51.130;13.978;2023-02-18T13:05:26;10.00;99.90
19031;DHT22;9648;51.130;13.978;2023-02-18T13:08:06;9.90;99.90
19031;DHT22;9648;51.130;13.978;2023-02-18T13:10:50;9.90;99.90
19031;DHT22;9648;51.130;13.978;2023-02-18T13:13:23;9.90;99.90
19031;DHT22;9648;51.130;13.978;2023-02-18T13:15:52;9.90;99.90
19031;DHT22;9648;51.130;13.978;2023-02-18T13:18:31;9.80;99.90
19031;DHT22;9648;51.130;13.978;2023-02-18T13:21:04;9.80;99.90
19031;DHT22;9648;51.130;13.978;2023-02-18T13:23:34;9.70;99.90
19031;DHT22;9648;51.130;13.978;2023-02-18T13:26:05;9.70;99.90
19031;DHT22;9648;51.130;13.978;2023-02-18T13:28:36;9.60;99.90
19031;DHT22;9648;51.130;13.978;2023-02-18T13:31:26;9.60;99.90
19031;DHT22;9648;51.130;13.978;2023-02-18T13:34:01;9.60;99.90
19031;DHT22;9648;51.130;13.978;2023-02-18T13:36:39;9.60;99.90
19031;DHT22;9648;51.130;13.978;2023-02-18T13:39:12;9.60;99.90
19031;DHT22;9648;51.130;13.978;2023-02-18T13:41:43;9.60;99.90
19031;DHT22;9648;51.130;13.978;2023-02-18T13:44:38;9.60;99.90
19031;DHT22;9648;51.130;13.978;2023-02-18T13:47:07;9.60;99.90
19031;DHT22;9648;51.130;13.978;2023-02-18T13:49:37;9.50;99.90
19031;DHT22;9648;51.130;13.978;2023-02-18T13:52:15;9.50;99.90
19031;DHT22;9648;51.130;13.978;2023-02-18T13:54:44;9.40;99.90
19031;DHT22;9648;51.130;13.978;2023-02-18T13:57:14;9.40;99.90
19031;DHT22;9648;51.130;13.978;2023-02-18T13:59:44;9.40;99.90
19031;DHT22;9648;51.130;13.978;2023-02-18T14:02:30;9.40;99.90
19031;DHT22;9648;51.130;13.978;2023-02-18T14:05:14;9.40;99.90
19031;DHT22;9648;51.130;13.978;2023-02-18T14:07:49;9.40;99.90
19031;DHT22;9648;51.130;13.978;2023-02-18T14:10:32;9.40;99.90
19031;DHT22;9648;51.130;13.978;2023-02-18T14:15:51;9.40;99.90
19031;DHT22;9648;51.130;13.978;2023-02-18T14:18:29;9.40;99.90
19031;DHT22;9648;51.130;13.978;2023-02-18T14:21:04;9.50;99.90
19031;DHT22;9648;51.130;13.978;2023-02-18T14:23:58;9.50;99.90
19031;DHT22;9648;51.130;13.978;2023-02-18T14:26:36;9.50;99.90
19031;DHT22;9648;51.130;13.978;2023-02-18T14:29:09;9.40;99.90
19031;DHT22;9648;51.130;13.978;2023-02-18T14:31:44;9.40;99.90
19031;DHT22;9648;51.130;13.978;2023-02-18T14:34:44;9.40;99.90
19031;DHT22;9648;51.130;13.978;2023-02-18T14:37:39;9.50;99.90
19031;DHT22;9648;51.130;13.978;2023-02-18T14:43:54;9.50;99.90
19031;DHT22;9648;51.130;13.978;2023-02-18T14:46:34;9.40;99.90
19031;DHT22;9648;51.130;13.978;2023-02-18T14:49:20;9.50;99.90
19031;DHT22;9648;51.130;13.978;2023-02-18T14:51:52;9.50;99.90
19031;DHT22;9648;51.130;13.978;2023-02-18T14:54:22;9.50;99.90
19031;DHT22;9648;51.130;13.978;2023-02-18T14:56:54;9.50;99.90
19031;DHT22;9648;51.130;13.978;2023-02-18T14:59:24;9.40;99.90
19031;DHT22;9648;51.130;13.978;2023-02-18T15:01:53;9.40;99.90
19031;DHT22;9648;51.130;13.978;2023-02-18T15:04:24;9.30;99.90
19031;DHT22;9648;51.130;13.978;2023-02-18T15:06:58;9.30;99.90
19031;DHT22;9648;51.130;13.978;2023-02-18T15:09:25;9.30;99.90
19031;DHT22;9648;51.130;13.978;2023-02-18T15:11:56;9.20;99.90
19031;DHT22;9648;51.130;13.978;2023-02-18T15:14:28;9.20;99.90
19031;DHT22;9648;51.130;13.978;2023-02-18T15:16:56;9.10;99.90
19031;DHT22;9648;51.130;13.978;2023-02-18T15:19:25;9.10;99.90
19031;DHT22;9648;51.130;13.978;2023-02-18T15:21:55;9.10;99.90
19031;DHT22;9648;51.130;13.978;2023-02-18T15:24:24;9.10;99.90
19031;DHT22;9648;51.130;13.978;2023-02-18T15:26:53;9.10;99.90
19031;DHT22;9648;51.130;13.978;2023-02-18T15:29:23;9.00;99.90
19031;DHT22;9648;51.130;13.978;2023-02-18T15:31:53;9.10;99.90
19031;DHT22;9648;51.130;13.978;2023-02-18T15:34:34;9.00;99.90
19031;DHT22;9648;51.130;13.978;2023-02-18T15:37:03;9.00;99.90
19031;DHT22;9648;51.130;13.978;2023-02-18T15:39:31;9.00;99.90
19031;DHT22;9648;51.130;13.978;2023-02-18T15:42:00;9.00;99.90
19031;DHT22;9648;51.130;13.978;2023-02-18T15:44:30;9.10;99.90
19031;DHT22;9648;51.130;13.978;2023-02-18T15:47:01;9.10;99.90
19031;DHT22;9648;51.130;13.978;2023-02-18T15:49:29;9.10;99.90
19031;DHT22;9648;51.130;13.978;2023-02-18T15:51:58;9.10;99.90
19031;DHT22;9648;51.130;13.978;2023-02-18T15:54:25;9.20;99.90
19031;DHT22;9648;51.130;13.978;2023-02-18T15:56:54;9.20;99.90
19031;DHT22;9648;51.130;13.978;2023-02-18T15:59:25;9.30;99.90
19031;DHT22;9648;51.130;13.978;2023-02-18T16:01:53;9.30;99.90
19031;DHT22;9648;51.130;13.978;2023-02-18T16:04:23;9.30;99.90
19031;DHT22;9648;51.130;13.978;2023-02-18T16:06:54;9.40;99.90
19031;DHT22;9648;51.130;13.978;2023-02-18T16:09:24;9.40;99.90
19031;DHT22;9648;51.130;13.978;2023-02-18T16:11:54;9.40;99.90
19031;DHT22;9648;51.130;13.978;2023-02-18T16:14:27;9.40;99.90
19031;DHT22;9648;51.130;13.978;2023-02-18T16:17:07;9.50;99.90
19031;DHT22;9648;51.130;13.978;2023-02-18T16:19:45;9.50;99.90
19031;DHT22;9648;51.130;13.978;2023-02-18T16:22:23;9.50;99.90
19031;DHT22;9648;51.130;13.978;2023-02-18T16:24:55;9.50;99.90
19031;DHT22;9648;51.130;13.978;2023-02-18T16:27:29;9.50;99.90